createdAt,value
2022-10-24T00:01:00.024Z,3.90
2022-10-24T00:06:01.426Z,1.73
2022-10-24T00:11:11.914Z,2.15
2022-10-24T00:16:13.757Z,1.80
2022-10-24T00:21:15.536Z,2.30
2022-10-24T00:26:16.947Z,1.90
2022-10-24T00:31:19.645Z,1.90
2022-10-24T00:36:23.214Z,2.20
2022-10-24T00:41:32.447Z,3.70
2022-10-24T00:46:33.855Z,2.03
2022-10-24T00:51:35.262Z,2.38
2022-10-24T00:56:41.626Z,2.30
2022-10-24T01:01:44.984Z,2.42
2022-10-24T01:06:52.531Z,2.20
2022-10-24T01:12:24.204Z,2.25
2022-10-24T01:17:31.474Z,2.85
2022-10-24T01:22:49.521Z,2.50
2022-10-24T01:28:00.902Z,2.25
2022-10-24T01:33:11.842Z,2.53
2022-10-24T01:38:16.262Z,2.38
2022-10-24T01:43:22.750Z,2.85
2022-10-24T01:48:26.095Z,2.30
2022-10-24T01:53:30.132Z,2.00
2022-10-24T01:58:31.509Z,1.67
2022-10-24T02:03:46.744Z,3.00
2022-10-24T02:08:53.820Z,2.85
2022-10-24T02:14:17.461Z,2.15
2022-10-24T02:19:19.102Z,2.40
2022-10-24T02:24:27.391Z,2.13
2022-10-24T02:29:42.331Z,2.40
2022-10-24T02:34:45.683Z,2.45
2022-10-24T02:39:49.015Z,2.80
2022-10-24T02:44:50.682Z,2.03
2022-10-24T02:49:53.119Z,1.83
2022-10-24T02:54:54.518Z,2.10
2022-10-24T02:59:55.894Z,2.22
2022-10-24T03:04:57.309Z,3.05
2022-10-24T03:09:58.708Z,2.80
2022-10-24T03:15:00.104Z,2.78
2022-10-24T03:20:01.702Z,2.88
2022-10-24T03:25:03.276Z,2.20
2022-10-24T03:30:05.633Z,2.45
2022-10-24T03:35:10.390Z,2.17
2022-10-24T03:40:14.715Z,2.08
2022-10-24T03:45:16.236Z,2.88
2022-10-24T03:50:18.190Z,2.70
2022-10-24T03:55:19.752Z,2.38
2022-10-24T04:00:21.239Z,2.42
2022-10-24T04:05:22.681Z,1.92
2022-10-24T04:10:24.073Z,2.40
2022-10-24T04:15:25.478Z,2.40
2022-10-24T04:20:27.006Z,1.90
2022-10-24T04:25:28.442Z,2.05
2022-10-24T04:30:29.954Z,1.80
2022-10-24T04:35:31.439Z,1.90
2022-10-24T04:40:32.873Z,1.88
2022-10-24T04:45:34.266Z,1.10
2022-10-24T04:50:36.617Z,1.08
2022-10-24T05:00:44.575Z,1.00
2022-10-24T05:05:46.942Z,1.88
2022-10-24T05:10:48.374Z,1.17
2022-10-24T05:15:49.770Z,1.45
2022-10-24T05:20:51.141Z,1.63
2022-10-24T05:25:53.096Z,1.90
2022-10-24T05:30:54.650Z,1.73
2022-10-24T05:35:56.140Z,2.22
2022-10-24T05:40:57.528Z,1.70
2022-10-24T05:45:58.931Z,1.65
2022-10-24T05:51:00.319Z,1.45
2022-10-24T05:56:01.794Z,1.52
2022-10-24T06:01:03.630Z,2.20
2022-10-24T06:06:09.391Z,2.38
2022-10-24T06:11:12.238Z,2.10
2022-10-24T06:16:13.677Z,2.55
2022-10-24T06:21:15.090Z,2.85
2022-10-24T06:26:19.144Z,2.28
2022-10-24T06:31:21.846Z,1.63
2022-10-24T06:36:25.784Z,1.58
2022-10-24T06:41:29.596Z,3.25
2022-10-24T06:46:32.327Z,1.75
2022-10-24T06:51:33.744Z,2.58
2022-10-24T06:56:35.419Z,2.47
2022-10-24T07:01:37.052Z,2.50
2022-10-24T07:06:38.574Z,2.80
2022-10-24T07:11:39.962Z,3.38
2022-10-24T07:16:41.355Z,3.28
2022-10-24T07:21:42.834Z,3.33
2022-10-24T07:26:44.197Z,3.85
2022-10-24T07:31:47.423Z,2.80
2022-10-24T07:36:48.844Z,3.05
2022-10-24T07:41:50.252Z,2.35
2022-10-24T07:46:51.664Z,2.58
2022-10-24T07:51:53.046Z,2.25
2022-10-24T07:56:54.919Z,3.20
2022-10-24T08:01:56.388Z,2.22
2022-10-24T08:06:57.885Z,2.08
2022-10-24T08:11:59.259Z,2.30
2022-10-24T08:17:00.670Z,2.20
2022-10-24T08:22:03.289Z,3.10
2022-10-24T08:27:04.738Z,2.55
2022-10-24T08:32:06.565Z,3.30
2022-10-24T08:37:07.962Z,2.83
2022-10-24T08:42:14.435Z,1.50
2022-10-24T08:47:26.333Z,1.95
2022-10-24T08:52:48.980Z,2.38
2022-10-24T08:57:57.186Z,1.83
2022-10-24T09:03:11.497Z,1.27
2022-10-24T09:08:33.886Z,1.75
2022-10-24T09:13:37.785Z,1.70
2022-10-24T09:18:43.089Z,1.63
2022-10-24T09:23:45.786Z,1.60
2022-10-24T09:28:47.230Z,1.70
2022-10-24T09:33:50.224Z,2.25
2022-10-24T09:38:51.889Z,2.00
2022-10-24T09:43:59.154Z,2.05
2022-10-24T09:49:12.627Z,2.13
2022-10-24T09:54:20.089Z,2.20
2022-10-24T09:59:34.907Z,2.63
2022-10-24T10:04:37.759Z,2.60
2022-10-24T10:09:52.722Z,2.92
2022-10-24T10:14:57.521Z,2.45
2022-10-24T10:19:59.626Z,2.83
2022-10-24T10:25:01.111Z,3.10
2022-10-24T10:30:21.679Z,3.00
2022-10-24T10:35:48.718Z,2.85
2022-10-24T10:40:57.670Z,2.70
2022-10-24T10:46:23.534Z,3.35
2022-10-24T10:51:33.607Z,1.23
2022-10-24T10:56:49.177Z,1.15
2022-10-24T11:02:01.703Z,0.77
2022-10-24T11:07:38.794Z,1.05
2022-10-24T11:12:42.993Z,0.90
2022-10-24T11:18:10.715Z,0.93
2022-10-24T11:23:24.270Z,0.80
2022-10-24T11:28:46.143Z,1.08
2022-10-24T11:34:11.635Z,1.00
2022-10-24T11:39:20.054Z,2.65
2022-10-24T11:44:38.391Z,1.33
2022-10-24T11:49:47.474Z,0.80
2022-10-24T11:59:58.419Z,0.82
2022-10-24T12:05:14.548Z,1.10
2022-10-24T12:10:21.996Z,1.30
2022-10-24T12:15:26.100Z,1.10
2022-10-24T12:20:28.507Z,1.50
2022-10-24T12:25:35.168Z,0.90
2022-10-24T12:30:36.821Z,0.70
2022-10-24T12:35:40.931Z,0.80
2022-10-24T12:40:45.515Z,0.68
2022-10-24T12:45:47.055Z,0.60
2022-10-24T12:50:57.343Z,0.85
2022-10-24T12:55:58.692Z,0.70
2022-10-24T13:01:06.503Z,5.95
2022-10-24T13:06:18.229Z,1.90
2022-10-24T13:11:22.479Z,1.13
2022-10-24T13:16:35.637Z,0.90
2022-10-24T13:21:57.702Z,0.90
2022-10-24T13:27:12.611Z,0.93
2022-10-24T13:32:18.548Z,1.17
2022-10-24T13:37:26.434Z,0.95
2022-10-24T13:42:42.190Z,0.77
2022-10-24T13:47:48.585Z,0.70
2022-10-24T13:53:13.298Z,0.68
2022-10-24T13:58:20.479Z,1.95
2022-10-24T14:03:24.812Z,0.82
2022-10-24T14:08:35.137Z,0.65
2022-10-24T14:13:44.888Z,0.70
2022-10-24T14:18:46.306Z,0.80
2022-10-24T14:24:00.515Z,0.70
2022-10-24T14:29:02.027Z,0.60
2022-10-24T14:34:05.797Z,0.65
2022-10-24T14:39:07.422Z,1.00
2022-10-24T14:44:15.616Z,0.60
2022-10-24T14:49:26.141Z,0.63
2022-10-24T14:54:33.477Z,1.05
2022-10-24T14:59:38.106Z,0.70
2022-10-24T15:04:43.043Z,0.65
2022-10-24T15:10:20.209Z,0.80
2022-10-24T15:15:45.771Z,0.60
2022-10-24T15:20:50.334Z,0.80
2022-10-24T15:26:17.495Z,0.70
2022-10-24T15:31:20.849Z,0.50
2022-10-24T15:36:25.296Z,0.50
2022-10-24T15:41:27.592Z,0.57
2022-10-24T15:46:29.178Z,1.02
2022-10-24T15:51:30.858Z,1.00
2022-10-24T15:56:32.597Z,0.90
2022-10-24T16:01:39.855Z,1.10
2022-10-24T16:06:42.171Z,1.05
2022-10-24T16:11:43.591Z,1.58
2022-10-24T16:16:45.019Z,1.70
2022-10-24T16:21:46.451Z,1.98
2022-10-24T16:26:47.923Z,3.03
2022-10-24T16:31:49.321Z,2.80
2022-10-24T16:36:54.963Z,4.43
2022-10-24T16:41:56.392Z,7.78
2022-10-24T16:46:57.819Z,4.60
2022-10-24T16:51:59.232Z,3.30
2022-10-24T16:57:00.655Z,1.40
2022-10-24T17:02:02.142Z,4.53
2022-10-24T17:07:03.595Z,3.20
2022-10-24T17:12:05.971Z,2.30
2022-10-24T17:17:07.431Z,0.80
2022-10-24T17:22:11.352Z,0.80
2022-10-24T17:27:14.584Z,3.35
2022-10-24T17:32:16.951Z,2.80
2022-10-24T17:37:56.111Z,7.20
2022-10-24T17:42:57.770Z,2.10
2022-10-24T17:47:59.265Z,2.20
2022-10-24T17:53:00.677Z,2.90
2022-10-24T18:09:33.013Z,2.00
2022-10-24T18:14:36.631Z,1.20
2022-10-24T18:19:38.035Z,0.75
2022-10-24T18:24:39.430Z,0.90
2022-10-24T18:34:47.243Z,0.90
2022-10-24T18:39:50.002Z,0.80
2022-10-24T18:44:52.189Z,0.90
2022-10-24T18:49:53.906Z,1.15
2022-10-24T18:55:05.367Z,1.00
2022-10-24T19:00:07.429Z,0.70
2022-10-24T19:05:15.570Z,1.05
2022-10-24T19:10:24.687Z,1.00
2022-10-24T19:15:26.342Z,1.10
2022-10-24T19:20:27.834Z,1.35
2022-10-24T19:25:29.307Z,1.02
2022-10-24T19:30:30.721Z,1.10
2022-10-24T19:35:32.152Z,0.85
2022-10-24T19:40:33.549Z,1.63
2022-10-24T19:45:35.213Z,2.30
2022-10-24T19:50:36.627Z,2.10
2022-10-24T19:55:38.312Z,2.53
2022-10-24T20:00:40.868Z,2.50
2022-10-24T20:05:42.326Z,2.38
2022-10-24T20:10:50.996Z,2.00
2022-10-24T20:16:03.445Z,1.95
2022-10-24T20:21:07.211Z,1.45
2022-10-24T20:26:17.414Z,1.50
2022-10-24T20:31:25.059Z,1.75
2022-10-24T20:36:27.350Z,1.95
2022-10-24T20:41:29.095Z,1.20
2022-10-24T20:46:30.962Z,1.20
2022-10-24T20:51:32.556Z,1.00
2022-10-24T20:56:35.197Z,0.95
2022-10-24T21:01:38.287Z,1.30
2022-10-24T21:06:39.919Z,1.05
2022-10-24T21:11:41.403Z,1.20
2022-10-24T21:16:42.851Z,0.90
2022-10-24T21:21:44.266Z,0.98
2022-10-24T21:26:45.668Z,0.98
2022-10-24T21:31:48.947Z,0.90
2022-10-24T21:36:50.340Z,0.88
2022-10-24T21:41:51.711Z,1.00
2022-10-24T21:46:53.100Z,2.88
2022-10-24T21:51:54.498Z,0.90
2022-10-24T21:56:55.920Z,0.80
2022-10-24T22:01:57.459Z,1.38
2022-10-24T22:06:58.956Z,1.30
2022-10-24T22:12:00.343Z,1.13
2022-10-24T22:17:01.747Z,1.00
2022-10-24T22:22:03.312Z,1.13
2022-10-24T22:27:04.735Z,1.00
2022-10-24T22:32:06.535Z,1.27
2022-10-24T22:37:23.347Z,1.00
2022-10-24T22:42:24.898Z,0.88
2022-10-24T22:47:43.696Z,1.10
2022-10-24T22:52:45.534Z,0.93
2022-10-24T22:57:47.238Z,1.40
2022-10-24T23:02:51.283Z,1.90
2022-10-24T23:07:58.667Z,1.15
2022-10-24T23:13:00.363Z,1.20
2022-10-24T23:18:02.026Z,1.50
2022-10-24T23:23:16.297Z,1.58
2022-10-24T23:28:49.273Z,1.27
2022-10-24T23:33:50.950Z,1.50
2022-10-24T23:38:52.621Z,1.83
2022-10-24T23:43:54.385Z,1.98
2022-10-24T23:49:22.935Z,2.05
2022-10-24T23:54:30.207Z,2.10
2022-10-24T23:59:31.604Z,1.75
